createdAt,value
2022-11-15T00:01:12.258Z,12.93
2022-11-15T00:03:39.035Z,11.75
2022-11-15T00:06:06.209Z,12.27
2022-11-15T00:08:33.779Z,11.27
2022-11-15T00:11:02.728Z,11.02
2022-11-15T00:13:31.197Z,11.30
2022-11-15T00:16:00.649Z,12.13
2022-11-15T00:18:28.461Z,12.27
2022-11-15T00:20:55.490Z,12.55
2022-11-15T00:23:22.277Z,11.38
2022-11-15T00:25:56.481Z,11.73
2022-11-15T00:30:49.994Z,9.93
2022-11-15T00:33:16.785Z,10.38
2022-11-15T00:35:43.696Z,10.80
2022-11-15T00:38:10.476Z,10.90
2022-11-15T00:40:37.236Z,11.15
2022-11-15T00:43:04.029Z,11.45
2022-11-15T00:45:30.790Z,11.43
2022-11-15T00:47:57.589Z,10.68
2022-11-15T00:50:24.366Z,10.98
2022-11-15T00:52:51.126Z,10.63
2022-11-15T00:55:19.237Z,10.75
2022-11-15T00:57:47.476Z,11.00
2022-11-15T01:00:14.966Z,10.63
2022-11-15T01:02:41.758Z,10.50
2022-11-15T01:05:09.154Z,11.20
2022-11-15T01:07:36.255Z,11.30
2022-11-15T01:10:03.931Z,10.73
2022-11-15T01:12:30.803Z,10.52
2022-11-15T01:14:57.610Z,11.05
2022-11-15T01:17:24.762Z,9.77
2022-11-15T01:19:51.521Z,10.38
2022-11-15T01:22:18.442Z,10.15
2022-11-15T01:24:45.309Z,10.52
2022-11-15T01:27:12.073Z,10.02
2022-11-15T01:29:38.846Z,9.40
2022-11-15T01:32:05.697Z,9.90
2022-11-15T01:34:32.453Z,9.68
2022-11-15T01:36:59.745Z,8.65
2022-11-15T01:39:27.350Z,9.00
2022-11-15T01:41:54.615Z,8.35
2022-11-15T01:44:45.655Z,9.63
2022-11-15T01:47:30.530Z,8.40
2022-11-15T01:50:07.578Z,8.38
2022-11-15T01:52:36.215Z,8.25
2022-11-15T01:55:17.338Z,9.25
2022-11-15T01:57:48.092Z,9.30
2022-11-15T02:00:16.020Z,8.93
2022-11-15T02:02:42.872Z,8.48
2022-11-15T02:05:09.750Z,8.75
2022-11-15T02:07:37.446Z,8.40
2022-11-15T02:10:14.940Z,9.23
2022-11-15T02:12:42.484Z,8.52
2022-11-15T02:15:11.005Z,7.63
2022-11-15T02:18:03.359Z,8.18
2022-11-15T02:20:57.130Z,8.27
2022-11-15T02:24:11.077Z,9.18
2022-11-15T02:26:57.517Z,7.88
2022-11-15T02:30:13.861Z,7.22
2022-11-15T02:32:51.912Z,7.60
2022-11-15T02:35:30.197Z,8.07
2022-11-15T02:38:16.753Z,7.55
2022-11-15T02:41:02.880Z,7.47
2022-11-15T02:43:59.903Z,8.60
2022-11-15T02:47:00.551Z,8.13
2022-11-15T02:49:30.370Z,8.52
2022-11-15T02:51:57.450Z,9.77
2022-11-15T02:54:30.309Z,9.50
2022-11-15T02:57:17.944Z,8.13
2022-11-15T03:00:08.973Z,7.78
2022-11-15T03:03:13.200Z,8.30
2022-11-15T03:06:03.680Z,8.30
2022-11-15T03:08:33.853Z,8.52
2022-11-15T03:11:22.618Z,7.32
2022-11-15T03:14:01.959Z,7.75
2022-11-15T03:16:38.495Z,8.45
2022-11-15T03:19:20.557Z,7.63
2022-11-15T03:21:49.198Z,9.27
2022-11-15T03:24:25.650Z,6.97
2022-11-15T03:26:55.862Z,7.70
2022-11-15T03:29:29.855Z,9.77
2022-11-15T03:32:07.783Z,9.77
2022-11-15T03:34:52.121Z,8.82
2022-11-15T03:37:22.176Z,8.57
2022-11-15T03:39:48.945Z,8.60
2022-11-15T03:42:31.826Z,8.43
2022-11-15T03:45:30.124Z,7.25
2022-11-15T03:48:06.991Z,7.13
2022-11-15T03:50:34.480Z,7.50
2022-11-15T03:53:01.903Z,7.75
2022-11-15T03:55:28.693Z,8.13
2022-11-15T03:57:59.930Z,8.18
2022-11-15T04:00:27.419Z,7.18
2022-11-15T04:02:54.195Z,7.88
2022-11-15T04:05:20.959Z,7.20
2022-11-15T04:07:47.734Z,7.55
2022-11-15T04:10:14.955Z,6.32
2022-11-15T04:12:47.144Z,6.43
2022-11-15T04:15:21.724Z,6.63
2022-11-15T04:17:57.479Z,6.55
2022-11-15T04:20:46.546Z,6.80
2022-11-15T04:23:38.483Z,6.78
2022-11-15T04:26:12.738Z,6.07
2022-11-15T04:31:26.419Z,6.90
2022-11-15T04:33:53.825Z,6.72
2022-11-15T04:36:39.943Z,7.45
2022-11-15T04:39:06.711Z,7.22
2022-11-15T04:41:33.565Z,7.13
2022-11-15T04:44:00.430Z,7.20
2022-11-15T04:46:27.522Z,7.32
2022-11-15T04:48:58.613Z,6.60
2022-11-15T04:51:26.485Z,6.30
2022-11-15T04:53:53.450Z,6.63
2022-11-15T04:56:20.380Z,6.72
2022-11-15T04:58:50.578Z,7.50
2022-11-15T05:01:17.692Z,7.25
2022-11-15T05:04:04.121Z,7.45
2022-11-15T05:06:31.211Z,6.28
2022-11-15T05:08:58.720Z,7.07
2022-11-15T05:11:26.316Z,6.88
2022-11-15T05:13:53.125Z,6.63
2022-11-15T05:16:20.213Z,6.43
2022-11-15T05:18:47.036Z,6.25
2022-11-15T05:21:15.870Z,6.95
2022-11-15T05:23:42.864Z,6.85
2022-11-15T05:26:11.137Z,7.43
2022-11-15T05:28:39.092Z,6.47
2022-11-15T05:31:11.642Z,6.57
2022-11-15T05:33:41.209Z,6.90
2022-11-15T05:36:37.592Z,6.78
2022-11-15T05:39:08.912Z,6.50
2022-11-15T05:41:51.339Z,6.32
2022-11-15T05:44:22.296Z,6.35
2022-11-15T05:46:50.408Z,6.28
2022-11-15T05:49:21.274Z,5.72
2022-11-15T05:51:49.361Z,6.05
2022-11-15T05:54:17.294Z,5.72
2022-11-15T05:56:44.849Z,5.20
2022-11-15T05:59:12.597Z,5.88
2022-11-15T06:01:40.644Z,5.10
2022-11-15T06:04:07.741Z,5.15
2022-11-15T06:06:34.562Z,5.40
2022-11-15T06:09:01.367Z,4.72
2022-11-15T06:11:28.914Z,5.05
2022-11-15T06:13:55.758Z,4.80
2022-11-15T06:16:22.565Z,4.57
2022-11-15T06:18:49.389Z,5.00
2022-11-15T06:21:16.171Z,4.63
2022-11-15T06:23:42.971Z,4.82
2022-11-15T06:26:09.748Z,4.35
2022-11-15T06:28:36.569Z,4.60
2022-11-15T06:31:08.956Z,4.38
2022-11-15T06:33:35.925Z,4.10
2022-11-15T06:36:13.225Z,4.40
2022-11-15T06:38:45.345Z,4.10
2022-11-15T06:41:14.307Z,3.83
2022-11-15T06:43:41.736Z,3.92
2022-11-15T06:46:08.930Z,4.43
2022-11-15T06:48:37.076Z,4.15
2022-11-15T06:51:05.810Z,4.68
2022-11-15T06:53:33.318Z,4.15
2022-11-15T06:56:06.625Z,4.57
2022-11-15T06:58:33.948Z,3.88
2022-11-15T07:01:10.502Z,4.20
2022-11-15T07:03:43.125Z,4.20
2022-11-15T07:06:10.658Z,4.55
2022-11-15T07:08:38.370Z,4.40
2022-11-15T07:11:09.441Z,4.60
2022-11-15T07:13:38.056Z,4.00
2022-11-15T07:16:07.772Z,4.20
2022-11-15T07:18:39.755Z,4.63
2022-11-15T07:21:09.799Z,4.78
2022-11-15T07:23:40.410Z,4.50
2022-11-15T07:26:08.536Z,4.88
2022-11-15T07:28:35.933Z,4.07
2022-11-15T07:31:06.079Z,4.35
2022-11-15T07:33:33.765Z,3.63
2022-11-15T07:36:06.008Z,3.92
2022-11-15T07:38:38.150Z,4.63
2022-11-15T07:41:08.165Z,4.07
2022-11-15T07:43:35.265Z,4.30
2022-11-15T07:46:10.320Z,3.80
2022-11-15T07:48:44.572Z,4.10
2022-11-15T07:51:17.014Z,3.75
2022-11-15T07:53:44.738Z,3.75
2022-11-15T07:56:12.058Z,3.55
2022-11-15T07:58:38.839Z,3.65
2022-11-15T08:01:11.014Z,3.80
2022-11-15T08:03:38.313Z,3.35
2022-11-15T08:06:05.575Z,3.90
2022-11-15T08:08:32.367Z,3.70
2022-11-15T08:10:59.823Z,3.97
2022-11-15T08:13:26.662Z,3.88
2022-11-15T08:15:58.859Z,3.15
2022-11-15T08:18:25.649Z,4.25
2022-11-15T08:20:52.445Z,2.95
2022-11-15T08:23:19.377Z,3.65
2022-11-15T08:25:46.137Z,3.60
2022-11-15T08:28:12.954Z,3.67
2022-11-15T08:30:43.118Z,3.50
2022-11-15T08:33:14.912Z,3.03
2022-11-15T08:35:43.436Z,3.42
2022-11-15T08:38:10.639Z,3.83
2022-11-15T08:40:37.978Z,3.63
2022-11-15T08:43:05.133Z,3.88
2022-11-15T08:45:32.465Z,3.42
2022-11-15T08:48:04.199Z,3.67
2022-11-15T08:50:31.054Z,3.72
2022-11-15T08:52:58.047Z,3.47
2022-11-15T08:55:25.197Z,3.50
2022-11-15T08:57:52.231Z,3.05
2022-11-15T09:00:20.766Z,3.88
2022-11-15T09:02:47.777Z,3.47
2022-11-15T09:05:16.057Z,3.75
2022-11-15T09:07:42.868Z,3.55
2022-11-15T09:10:09.838Z,3.83
2022-11-15T09:12:36.647Z,3.45
2022-11-15T09:15:04.824Z,2.70
2022-11-15T09:17:31.613Z,3.13
2022-11-15T09:19:58.416Z,3.50
2022-11-15T09:22:25.225Z,2.85
2022-11-15T09:24:52.028Z,3.42
2022-11-15T09:27:18.834Z,3.00
2022-11-15T09:29:45.598Z,3.05
2022-11-15T09:32:12.449Z,2.97
2022-11-15T09:34:39.203Z,3.40
2022-11-15T09:37:05.967Z,3.50
2022-11-15T09:39:32.839Z,3.20
2022-11-15T09:42:27.150Z,2.88
2022-11-15T09:45:09.997Z,3.42
2022-11-15T09:47:58.632Z,3.15
2022-11-15T09:50:50.086Z,2.88
2022-11-15T09:54:23.726Z,2.38
2022-11-15T09:56:34.385Z,2.80
2022-11-15T09:59:39.096Z,3.17
2022-11-15T10:02:08.581Z,2.92
2022-11-15T10:04:37.971Z,3.10
2022-11-15T10:07:19.796Z,3.00
2022-11-15T10:09:57.930Z,3.00
2022-11-15T10:12:28.094Z,2.83
2022-11-15T10:15:16.201Z,3.05
2022-11-15T10:18:00.370Z,3.13
2022-11-15T10:20:30.925Z,2.95
2022-11-15T10:23:02.210Z,2.55
2022-11-15T10:25:32.427Z,2.58
2022-11-15T10:28:07.621Z,2.72
2022-11-15T10:30:42.210Z,3.17
2022-11-15T10:33:30.764Z,2.30
2022-11-15T10:36:09.854Z,2.50
2022-11-15T10:38:51.951Z,2.92
2022-11-15T10:41:30.323Z,2.80
2022-11-15T10:44:18.076Z,2.85
2022-11-15T10:46:51.421Z,2.75
2022-11-15T10:49:30.849Z,2.85
2022-11-15T10:52:18.062Z,2.42
2022-11-15T10:54:53.094Z,2.42
2022-11-15T10:57:30.980Z,2.30
2022-11-15T11:00:02.429Z,2.63
2022-11-15T11:02:58.315Z,2.92
2022-11-15T11:05:39.912Z,2.30
2022-11-15T11:08:11.894Z,2.50
2022-11-15T11:10:51.698Z,2.47
2022-11-15T11:13:30.115Z,2.45
2022-11-15T11:16:15.061Z,2.60
2022-11-15T11:19:19.546Z,2.95
2022-11-15T11:22:28.062Z,2.70
2022-11-15T11:25:30.120Z,2.20
2022-11-15T11:28:10.414Z,2.47
2022-11-15T11:30:48.954Z,2.50
2022-11-15T11:33:31.268Z,2.35
2022-11-15T11:36:16.713Z,2.50
2022-11-15T11:39:29.044Z,2.30
2022-11-15T11:43:00.263Z,2.15
2022-11-15T11:45:47.185Z,2.30
2022-11-15T11:48:24.695Z,2.00
2022-11-15T11:50:51.492Z,2.72
2022-11-15T11:53:40.976Z,2.17
2022-11-15T11:56:30.733Z,1.85
2022-11-15T11:59:08.782Z,1.92
2022-11-15T12:01:42.936Z,2.13
2022-11-15T12:04:42.930Z,1.92
2022-11-15T12:07:18.789Z,1.98
2022-11-15T12:10:04.300Z,1.90
2022-11-15T12:13:08.072Z,2.10
2022-11-15T12:15:46.347Z,2.28
2022-11-15T12:18:16.871Z,1.80
2022-11-15T12:20:56.494Z,1.48
2022-11-15T12:23:35.987Z,1.52
2022-11-15T12:26:24.692Z,1.70
2022-11-15T12:29:07.969Z,2.05
2022-11-15T12:31:35.592Z,1.80
2022-11-15T12:34:20.615Z,1.77
2022-11-15T12:36:49.525Z,1.63
2022-11-15T12:39:18.168Z,1.42
2022-11-15T12:42:05.256Z,1.85
2022-11-15T12:44:31.977Z,1.48
2022-11-15T12:46:58.645Z,1.60
2022-11-15T12:49:28.007Z,1.60
2022-11-15T12:51:57.757Z,1.70
2022-11-15T12:54:24.388Z,1.80
2022-11-15T12:57:07.947Z,1.60
2022-11-15T12:59:58.671Z,2.05
2022-11-15T13:02:36.384Z,1.50
2022-11-15T13:05:35.698Z,1.85
2022-11-15T13:08:02.499Z,1.55
2022-11-15T13:10:34.478Z,1.27
2022-11-15T13:13:09.511Z,2.05
2022-11-15T13:15:53.956Z,1.92
2022-11-15T13:18:37.022Z,1.60
2022-11-15T13:21:39.241Z,1.73
2022-11-15T13:24:11.944Z,1.90
2022-11-15T13:26:41.018Z,2.05
2022-11-15T13:29:20.251Z,1.45
2022-11-15T13:31:48.109Z,1.90
2022-11-15T13:34:50.971Z,2.05
2022-11-15T13:37:21.952Z,1.65
2022-11-15T13:39:50.379Z,2.20
2022-11-15T13:42:19.915Z,1.88
2022-11-15T13:45:04.744Z,1.88
2022-11-15T13:47:32.669Z,1.98
2022-11-15T13:50:01.848Z,1.95
2022-11-15T13:52:34.516Z,1.90
2022-11-15T13:55:22.529Z,1.75
2022-11-15T13:58:00.334Z,1.98
2022-11-15T14:00:40.108Z,1.88
2022-11-15T14:03:32.362Z,1.60
2022-11-15T14:06:08.589Z,1.88
2022-11-15T14:08:36.731Z,1.70
2022-11-15T14:11:09.613Z,1.50
2022-11-15T14:13:37.115Z,1.50
2022-11-15T14:16:20.338Z,1.90
2022-11-15T14:18:53.780Z,1.58
2022-11-15T14:21:21.467Z,1.60
2022-11-15T14:23:49.925Z,1.77
2022-11-15T14:26:34.961Z,1.55
2022-11-15T14:29:33.708Z,1.52
2022-11-15T14:32:23.396Z,1.80
2022-11-15T14:34:59.222Z,1.55
2022-11-15T14:37:35.778Z,1.42
2022-11-15T14:40:06.041Z,1.52
2022-11-15T14:42:33.178Z,1.45
2022-11-15T14:44:59.965Z,1.70
2022-11-15T14:47:26.736Z,1.75
2022-11-15T14:49:53.612Z,1.90
2022-11-15T14:52:32.891Z,1.63
2022-11-15T14:55:00.492Z,1.90
2022-11-15T14:57:27.319Z,2.08
2022-11-15T14:59:54.211Z,1.80
2022-11-15T15:02:25.423Z,1.88
2022-11-15T15:04:52.820Z,2.40
2022-11-15T15:07:20.625Z,2.05
2022-11-15T15:09:47.910Z,2.03
2022-11-15T15:12:24.077Z,2.50
2022-11-15T15:14:51.753Z,2.90
2022-11-15T15:17:19.042Z,2.47
2022-11-15T15:19:46.015Z,2.70
2022-11-15T15:22:26.400Z,2.53
2022-11-15T15:24:53.143Z,2.63
2022-11-15T15:27:19.952Z,2.33
2022-11-15T15:29:46.950Z,3.28
2022-11-15T15:32:14.362Z,2.55
2022-11-15T15:34:41.445Z,2.60
2022-11-15T15:37:25.177Z,4.20
2022-11-15T15:39:57.073Z,2.65
2022-11-15T15:42:24.586Z,2.65
2022-11-15T15:44:52.237Z,3.22
2022-11-15T15:47:24.126Z,2.70
2022-11-15T15:49:51.852Z,3.08
2022-11-15T15:52:19.157Z,2.67
2022-11-15T15:54:46.205Z,2.83
2022-11-15T15:57:14.365Z,3.40
2022-11-15T15:59:41.576Z,3.13
2022-11-15T16:02:13.633Z,3.47
2022-11-15T16:04:41.167Z,2.95
2022-11-15T16:07:21.468Z,2.85
2022-11-15T16:10:03.539Z,3.10
2022-11-15T16:12:35.783Z,3.35
2022-11-15T16:15:04.157Z,3.38
2022-11-15T16:17:38.679Z,3.17
2022-11-15T16:20:06.290Z,3.40
2022-11-15T16:22:33.108Z,3.30
2022-11-15T16:24:59.920Z,4.03
2022-11-15T16:27:26.693Z,3.17
2022-11-15T16:29:53.452Z,3.33
2022-11-15T16:32:20.274Z,3.83
2022-11-15T16:34:49.173Z,3.83
2022-11-15T16:37:25.798Z,3.80
2022-11-15T16:39:54.867Z,3.50
2022-11-15T16:42:25.221Z,3.47
2022-11-15T16:44:51.989Z,2.97
2022-11-15T16:47:20.009Z,3.67
2022-11-15T16:49:47.511Z,3.75
2022-11-15T16:52:18.764Z,4.18
2022-11-15T16:54:47.905Z,4.72
2022-11-15T16:57:14.672Z,4.57
2022-11-15T16:59:41.582Z,4.38
2022-11-15T17:02:15.029Z,5.00
2022-11-15T17:04:41.967Z,4.20
2022-11-15T17:07:09.224Z,4.55
2022-11-15T17:09:36.061Z,4.15
2022-11-15T17:12:02.851Z,4.03
2022-11-15T17:14:29.833Z,4.45
2022-11-15T17:16:56.647Z,4.03
2022-11-15T17:19:23.434Z,4.30
2022-11-15T17:21:50.543Z,4.20
2022-11-15T17:24:17.949Z,5.55
2022-11-15T17:26:44.815Z,4.70
2022-11-15T17:29:11.734Z,4.97
2022-11-15T17:31:39.142Z,5.50
2022-11-15T17:34:07.287Z,5.82
2022-11-15T17:36:34.960Z,5.47
2022-11-15T17:39:02.693Z,5.32
2022-11-15T17:41:29.841Z,4.95
2022-11-15T17:43:59.642Z,4.95
2022-11-15T17:46:28.063Z,5.90
2022-11-15T17:48:56.750Z,6.18
2022-11-15T17:51:24.178Z,5.20
2022-11-15T17:53:51.722Z,4.85
2022-11-15T17:56:22.875Z,4.55
2022-11-15T17:58:57.191Z,4.20
2022-11-15T18:01:30.722Z,4.97
2022-11-15T18:04:00.528Z,5.10
2022-11-15T18:06:32.703Z,4.75
2022-11-15T18:09:00.346Z,4.80
2022-11-15T18:11:50.460Z,4.75
2022-11-15T18:14:19.112Z,4.78
2022-11-15T18:16:46.126Z,4.88
2022-11-15T18:19:13.698Z,4.82
2022-11-15T18:21:58.871Z,4.18
2022-11-15T18:24:30.125Z,4.32
2022-11-15T18:26:58.772Z,4.40
2022-11-15T18:29:25.893Z,4.35
2022-11-15T18:31:56.876Z,5.15
2022-11-15T18:34:33.344Z,4.90
2022-11-15T18:37:02.887Z,5.10
2022-11-15T18:39:30.249Z,4.65
2022-11-15T18:41:57.331Z,4.22
2022-11-15T18:44:24.200Z,4.93
2022-11-15T18:46:51.064Z,4.53
2022-11-15T18:49:19.730Z,4.88
2022-11-15T18:51:47.443Z,4.68
2022-11-15T18:54:16.422Z,4.88
2022-11-15T18:56:46.937Z,4.95
2022-11-15T18:59:14.896Z,4.60
2022-11-15T19:01:46.455Z,4.22
2022-11-15T19:04:18.316Z,4.80
2022-11-15T19:06:48.061Z,4.30
2022-11-15T19:09:17.309Z,4.10
2022-11-15T19:11:46.943Z,4.72
2022-11-15T19:14:16.411Z,5.03
2022-11-15T19:16:49.822Z,4.03
2022-11-15T19:19:20.416Z,4.90
2022-11-15T19:21:47.822Z,4.22
2022-11-15T19:24:15.308Z,4.20
2022-11-15T19:26:42.580Z,3.88
2022-11-15T19:29:10.601Z,4.72
2022-11-15T19:31:38.183Z,4.55
2022-11-15T19:34:06.806Z,4.63
2022-11-15T19:36:44.575Z,4.45
2022-11-15T19:39:14.917Z,3.88
2022-11-15T19:41:43.736Z,4.45
2022-11-15T19:44:12.120Z,3.90
2022-11-15T19:46:39.514Z,4.85
2022-11-15T19:49:11.034Z,3.90
2022-11-15T19:51:41.632Z,4.40
2022-11-15T19:54:09.728Z,4.25
2022-11-15T19:56:37.347Z,4.28
2022-11-15T19:59:05.029Z,4.40
2022-11-15T20:01:36.319Z,4.22
2022-11-15T20:04:03.634Z,4.65
2022-11-15T20:06:41.190Z,3.88
2022-11-15T20:09:11.367Z,3.30
2022-11-15T20:11:39.348Z,3.90
2022-11-15T20:14:07.814Z,4.18
2022-11-15T20:16:34.806Z,3.83
2022-11-15T20:19:01.786Z,4.28
2022-11-15T20:21:28.579Z,4.40
2022-11-15T20:23:56.320Z,4.20
2022-11-15T20:26:23.641Z,4.40
2022-11-15T20:28:50.453Z,3.63
2022-11-15T20:31:17.943Z,4.10
2022-11-15T20:33:44.870Z,4.05
2022-11-15T20:36:14.422Z,4.00
2022-11-15T20:38:41.544Z,4.82
2022-11-15T20:41:14.234Z,4.32
2022-11-15T20:43:43.312Z,4.38
2022-11-15T20:46:12.032Z,3.92
2022-11-15T20:48:39.751Z,4.00
2022-11-15T20:51:16.081Z,4.00
2022-11-15T20:53:44.940Z,3.60
2022-11-15T20:56:15.192Z,4.47
2022-11-15T20:58:43.247Z,4.15
2022-11-15T21:01:14.971Z,4.35
2022-11-15T21:03:42.230Z,3.95
2022-11-15T21:06:10.391Z,4.25
2022-11-15T21:08:55.988Z,3.85
2022-11-15T21:11:43.084Z,3.72
2022-11-15T21:14:10.025Z,4.00
2022-11-15T21:16:37.976Z,4.40
2022-11-15T21:19:06.513Z,4.72
2022-11-15T21:21:34.041Z,3.75
2022-11-15T21:24:04.469Z,3.92
2022-11-15T21:26:31.360Z,4.68
2022-11-15T21:28:58.164Z,4.68
2022-11-15T21:31:24.985Z,4.20
2022-11-15T21:33:51.734Z,4.30
2022-11-15T21:36:18.579Z,4.00
2022-11-15T21:38:45.343Z,4.40
2022-11-15T21:41:12.125Z,4.13
2022-11-15T21:43:38.893Z,4.90
2022-11-15T21:46:06.943Z,5.07
2022-11-15T21:48:35.679Z,3.95
2022-11-15T21:51:05.971Z,4.45
2022-11-15T21:53:33.958Z,4.40
2022-11-15T21:56:01.745Z,4.63
2022-11-15T21:58:29.265Z,4.28
2022-11-15T22:01:15.183Z,4.90
2022-11-15T22:03:42.740Z,4.75
2022-11-15T22:06:16.028Z,4.38
2022-11-15T22:08:45.594Z,4.25
2022-11-15T22:11:12.528Z,4.35
2022-11-15T22:13:39.317Z,4.50
2022-11-15T22:16:07.926Z,4.38
2022-11-15T22:18:35.552Z,4.18
2022-11-15T22:21:09.910Z,4.53
2022-11-15T22:23:37.236Z,4.32
2022-11-15T22:26:05.318Z,4.18
2022-11-15T22:28:32.539Z,4.70
2022-11-15T22:31:00.224Z,4.20
2022-11-15T22:33:29.773Z,3.92
2022-11-15T22:35:57.504Z,4.10
2022-11-15T22:38:24.985Z,4.43
2022-11-15T22:40:51.853Z,4.32
2022-11-15T22:43:22.973Z,4.03
2022-11-15T22:45:49.749Z,3.83
2022-11-15T22:48:16.827Z,4.15
2022-11-15T22:50:44.480Z,3.97
2022-11-15T22:53:11.894Z,4.00
2022-11-15T22:55:42.043Z,4.35
2022-11-15T22:58:09.035Z,4.18
2022-11-15T23:00:36.411Z,4.80
2022-11-15T23:03:04.166Z,4.18
2022-11-15T23:05:30.952Z,3.85
2022-11-15T23:07:57.884Z,4.43
2022-11-15T23:11:02.902Z,4.40
2022-11-15T23:13:32.011Z,4.65
2022-11-15T23:16:25.492Z,4.60
2022-11-15T23:18:57.448Z,4.90
2022-11-15T23:21:46.618Z,4.45
2022-11-15T23:24:15.057Z,5.07
2022-11-15T23:26:43.512Z,4.70
2022-11-15T23:29:14.067Z,4.72
2022-11-15T23:32:02.333Z,4.60
2022-11-15T23:34:31.357Z,4.35
2022-11-15T23:36:58.887Z,4.65
2022-11-15T23:39:25.715Z,4.93
2022-11-15T23:41:52.538Z,4.30
2022-11-15T23:44:19.328Z,4.00
2022-11-15T23:46:46.118Z,4.43
2022-11-15T23:49:13.007Z,4.22
2022-11-15T23:51:39.829Z,5.18
2022-11-15T23:54:07.456Z,3.92
2022-11-15T23:56:34.642Z,4.53
2022-11-15T23:59:01.657Z,3.90
